Aurora, Texas
Current Conditions -  °F | °C
As of 1:53 PM on Thursday 27 Nov 2014 (Local Time) from KAFW Reporting Station
Clear Clear  
Wind Chill: 55°   Ceiling: Unl
Heat Index: 55°   Visibility: 10mi
Dew Point: 23°   Wind: 3mph
Humidity: 29%   Direction: 330°NNW
Pressure: 30.44"   Gusts: NA
Location:  33.0495°N, 97.45°W
Report Text: KAFW 271953Z 33003KT 10SM CLR 13/M05 A3044 RMK AO2 SLP313 T01281050
Loading
Personal Weather Stations






























Interactive Weather Map New forecast layout! Learn more

10-Day Weather Forecast

Advertisements
Track Severe Weather on mobile